Terminal Aerodrome Forecast
Issued by NWS North Platte, NE

Home | Current Version | Previous Version | Text Only | Print | Product List | Glossary On
Versions: 1 2 3 4 5 6 7 8 9 10 11 12 13 14 15 16 17 18 19 20 21 22 23
000
FTUS43 KLBF 211700
TAFLBF
TAF
KLBF 211740Z 2118/2218 19010KT P6SM BKN090
     FM220100 24009KT P6SM -RA BKN040
     FM220600 30011KT P6SM BKN060
     FM221300 30014G23KT 4SM -SN BKN030
     FM221700 30015G27KT P6SM -SN BKN030=

USA.gov is the U.S. government's official web portal to all federal, state and local government web resources and services.